sensor_id;sensor_type;location;lat;lon;timestamp;P1;durP1;ratioP1;P2;durP2;ratioP2
14933;SDS011;7560;51.364;12.384;2024-01-15T00:01:45;17.08;;;8.82;;
14933;SDS011;7560;51.364;12.384;2024-01-15T00:06:48;14.23;;;7.90;;
14933;SDS011;7560;51.364;12.384;2024-01-15T00:11:50;17.27;;;8.45;;
14933;SDS011;7560;51.364;12.384;2024-01-15T00:16:52;17.27;;;8.07;;
14933;SDS011;7560;51.364;12.384;2024-01-15T00:21:56;17.05;;;8.60;;
14933;SDS011;7560;51.364;12.384;2024-01-15T00:26:58;17.85;;;8.98;;
14933;SDS011;7560;51.364;12.384;2024-01-15T00:32:00;16.83;;;9.13;;
14933;SDS011;7560;51.364;12.384;2024-01-15T00:37:02;16.65;;;8.70;;
14933;SDS011;7560;51.364;12.384;2024-01-15T00:42:04;17.35;;;8.68;;
14933;SDS011;7560;51.364;12.384;2024-01-15T00:47:06;15.45;;;8.57;;
14933;SDS011;7560;51.364;12.384;2024-01-15T00:52:07;16.15;;;8.43;;
14933;SDS011;7560;51.364;12.384;2024-01-15T00:57:09;19.60;;;9.15;;
14933;SDS011;7560;51.364;12.384;2024-01-15T01:02:11;18.83;;;9.35;;
14933;SDS011;7560;51.364;12.384;2024-01-15T01:07:13;19.10;;;9.18;;
14933;SDS011;7560;51.364;12.384;2024-01-15T01:12:14;16.55;;;8.80;;
14933;SDS011;7560;51.364;12.384;2024-01-15T01:17:17;18.02;;;8.70;;
14933;SDS011;7560;51.364;12.384;2024-01-15T01:22:18;15.70;;;8.45;;
14933;SDS011;7560;51.364;12.384;2024-01-15T01:27:20;17.98;;;8.68;;
14933;SDS011;7560;51.364;12.384;2024-01-15T01:32:22;16.38;;;8.15;;
14933;SDS011;7560;51.364;12.384;2024-01-15T01:37:24;14.73;;;8.38;;
14933;SDS011;7560;51.364;12.384;2024-01-15T01:42:26;15.88;;;7.78;;
14933;SDS011;7560;51.364;12.384;2024-01-15T01:47:28;15.63;;;7.80;;
14933;SDS011;7560;51.364;12.384;2024-01-15T01:52:30;15.20;;;8.02;;
14933;SDS011;7560;51.364;12.384;2024-01-15T01:57:33;16.23;;;9.05;;
14933;SDS011;7560;51.364;12.384;2024-01-15T02:02:36;17.08;;;8.80;;
14933;SDS011;7560;51.364;12.384;2024-01-15T02:07:38;16.25;;;7.82;;
14933;SDS011;7560;51.364;12.384;2024-01-15T02:12:39;18.73;;;8.43;;
14933;SDS011;7560;51.364;12.384;2024-01-15T02:18:00;17.05;;;8.70;;
14933;SDS011;7560;51.364;12.384;2024-01-15T02:23:13;16.88;;;7.97;;
14933;SDS011;7560;51.364;12.384;2024-01-15T02:28:17;16.50;;;8.52;;
14933;SDS011;7560;51.364;12.384;2024-01-15T02:33:19;13.68;;;7.50;;
14933;SDS011;7560;51.364;12.384;2024-01-15T02:38:21;15.13;;;7.80;;
14933;SDS011;7560;51.364;12.384;2024-01-15T02:43:23;16.92;;;7.65;;
14933;SDS011;7560;51.364;12.384;2024-01-15T02:48:24;14.82;;;7.07;;
14933;SDS011;7560;51.364;12.384;2024-01-15T02:53:26;15.98;;;7.78;;
14933;SDS011;7560;51.364;12.384;2024-01-15T02:58:28;18.15;;;7.85;;
14933;SDS011;7560;51.364;12.384;2024-01-15T03:03:30;16.10;;;8.02;;
14933;SDS011;7560;51.364;12.384;2024-01-15T03:08:34;15.80;;;7.63;;
14933;SDS011;7560;51.364;12.384;2024-01-15T03:13:36;15.00;;;7.88;;
14933;SDS011;7560;51.364;12.384;2024-01-15T03:18:38;15.52;;;7.90;;
14933;SDS011;7560;51.364;12.384;2024-01-15T03:23:40;16.33;;;7.93;;
14933;SDS011;7560;51.364;12.384;2024-01-15T03:28:42;17.65;;;7.63;;
14933;SDS011;7560;51.364;12.384;2024-01-15T03:33:44;15.15;;;7.93;;
14933;SDS011;7560;51.364;12.384;2024-01-15T03:38:46;17.83;;;8.23;;
14933;SDS011;7560;51.364;12.384;2024-01-15T03:43:48;13.23;;;7.18;;
14933;SDS011;7560;51.364;12.384;2024-01-15T03:48:50;15.65;;;7.93;;
14933;SDS011;7560;51.364;12.384;2024-01-15T03:53:52;16.80;;;8.60;;
14933;SDS011;7560;51.364;12.384;2024-01-15T03:58:54;17.13;;;7.78;;
14933;SDS011;7560;51.364;12.384;2024-01-15T04:03:56;12.85;;;6.78;;
14933;SDS011;7560;51.364;12.384;2024-01-15T04:08:58;11.15;;;6.63;;
14933;SDS011;7560;51.364;12.384;2024-01-15T04:14:00;15.82;;;7.60;;
14933;SDS011;7560;51.364;12.384;2024-01-15T04:19:02;10.90;;;6.40;;
14933;SDS011;7560;51.364;12.384;2024-01-15T04:24:04;12.50;;;7.40;;
14933;SDS011;7560;51.364;12.384;2024-01-15T04:29:06;14.63;;;6.75;;
14933;SDS011;7560;51.364;12.384;2024-01-15T04:34:08;14.35;;;6.70;;
14933;SDS011;7560;51.364;12.384;2024-01-15T04:39:10;12.10;;;6.35;;
14933;SDS011;7560;51.364;12.384;2024-01-15T04:44:13;18.10;;;6.50;;
14933;SDS011;7560;51.364;12.384;2024-01-15T04:49:14;12.43;;;6.25;;
14933;SDS011;7560;51.364;12.384;2024-01-15T04:54:16;13.05;;;6.90;;
14933;SDS011;7560;51.364;12.384;2024-01-15T04:59:19;11.98;;;7.05;;
14933;SDS011;7560;51.364;12.384;2024-01-15T05:04:21;10.18;;;5.55;;
14933;SDS011;7560;51.364;12.384;2024-01-15T05:09:23;11.38;;;6.07;;
14933;SDS011;7560;51.364;12.384;2024-01-15T05:14:25;11.27;;;6.00;;
14933;SDS011;7560;51.364;12.384;2024-01-15T05:19:26;8.73;;;4.72;;
14933;SDS011;7560;51.364;12.384;2024-01-15T05:24:28;9.68;;;5.45;;
14933;SDS011;7560;51.364;12.384;2024-01-15T05:29:30;9.60;;;5.78;;
14933;SDS011;7560;51.364;12.384;2024-01-15T05:34:32;10.38;;;5.30;;
14933;SDS011;7560;51.364;12.384;2024-01-15T05:39:35;10.00;;;5.22;;
14933;SDS011;7560;51.364;12.384;2024-01-15T05:44:36;11.30;;;6.22;;
14933;SDS011;7560;51.364;12.384;2024-01-15T05:49:38;11.07;;;5.10;;
14933;SDS011;7560;51.364;12.384;2024-01-15T05:54:40;9.65;;;5.32;;
14933;SDS011;7560;51.364;12.384;2024-01-15T05:59:42;12.00;;;5.97;;
14933;SDS011;7560;51.364;12.384;2024-01-15T06:04:45;12.30;;;5.50;;
14933;SDS011;7560;51.364;12.384;2024-01-15T06:09:47;10.23;;;5.07;;
14933;SDS011;7560;51.364;12.384;2024-01-15T06:14:49;11.43;;;5.55;;
14933;SDS011;7560;51.364;12.384;2024-01-15T06:19:51;10.30;;;5.53;;
14933;SDS011;7560;51.364;12.384;2024-01-15T06:24:53;10.15;;;5.07;;
14933;SDS011;7560;51.364;12.384;2024-01-15T06:29:55;10.15;;;5.55;;
14933;SDS011;7560;51.364;12.384;2024-01-15T06:34:57;10.43;;;5.07;;
14933;SDS011;7560;51.364;12.384;2024-01-15T06:39:59;8.98;;;4.68;;
14933;SDS011;7560;51.364;12.384;2024-01-15T06:45:01;10.00;;;4.85;;
14933;SDS011;7560;51.364;12.384;2024-01-15T06:50:03;14.35;;;5.35;;
14933;SDS011;7560;51.364;12.384;2024-01-15T06:55:08;8.02;;;4.90;;
14933;SDS011;7560;51.364;12.384;2024-01-15T07:00:10;11.32;;;5.53;;
14933;SDS011;7560;51.364;12.384;2024-01-15T07:05:12;9.82;;;5.32;;
14933;SDS011;7560;51.364;12.384;2024-01-15T07:10:14;10.07;;;5.03;;
14933;SDS011;7560;51.364;12.384;2024-01-15T07:15:15;10.18;;;4.75;;
14933;SDS011;7560;51.364;12.384;2024-01-15T07:20:17;9.30;;;4.95;;
14933;SDS011;7560;51.364;12.384;2024-01-15T07:25:20;8.90;;;4.78;;
14933;SDS011;7560;51.364;12.384;2024-01-15T07:30:22;8.13;;;5.22;;
14933;SDS011;7560;51.364;12.384;2024-01-15T07:35:25;10.07;;;5.10;;
14933;SDS011;7560;51.364;12.384;2024-01-15T07:40:26;9.13;;;4.68;;
14933;SDS011;7560;51.364;12.384;2024-01-15T07:45:28;8.55;;;4.57;;
14933;SDS011;7560;51.364;12.384;2024-01-15T07:50:31;10.07;;;5.18;;
14933;SDS011;7560;51.364;12.384;2024-01-15T07:55:32;10.70;;;4.75;;
14933;SDS011;7560;51.364;12.384;2024-01-15T08:00:34;8.15;;;4.55;;
14933;SDS011;7560;51.364;12.384;2024-01-15T08:05:36;9.85;;;5.25;;
14933;SDS011;7560;51.364;12.384;2024-01-15T08:10:38;9.20;;;4.72;;
14933;SDS011;7560;51.364;12.384;2024-01-15T08:15:40;11.10;;;5.28;;
14933;SDS011;7560;51.364;12.384;2024-01-15T08:20:42;9.68;;;5.00;;
14933;SDS011;7560;51.364;12.384;2024-01-15T08:25:44;11.75;;;4.75;;
14933;SDS011;7560;51.364;12.384;2024-01-15T08:30:46;10.23;;;4.70;;
14933;SDS011;7560;51.364;12.384;2024-01-15T08:35:48;9.73;;;4.95;;
14933;SDS011;7560;51.364;12.384;2024-01-15T08:40:50;7.55;;;4.50;;
14933;SDS011;7560;51.364;12.384;2024-01-15T08:45:54;9.75;;;4.95;;
14933;SDS011;7560;51.364;12.384;2024-01-15T08:50:56;8.10;;;4.63;;
14933;SDS011;7560;51.364;12.384;2024-01-15T08:55:58;8.57;;;4.40;;
14933;SDS011;7560;51.364;12.384;2024-01-15T09:01:00;8.27;;;4.47;;
14933;SDS011;7560;51.364;12.384;2024-01-15T09:06:02;9.20;;;5.13;;
14933;SDS011;7560;51.364;12.384;2024-01-15T09:11:04;8.15;;;4.53;;
14933;SDS011;7560;51.364;12.384;2024-01-15T09:16:06;9.82;;;5.03;;
14933;SDS011;7560;51.364;12.384;2024-01-15T09:21:08;9.48;;;4.80;;
14933;SDS011;7560;51.364;12.384;2024-01-15T09:26:10;9.95;;;4.32;;
14933;SDS011;7560;51.364;12.384;2024-01-15T09:31:12;11.77;;;5.80;;
14933;SDS011;7560;51.364;12.384;2024-01-15T09:36:14;9.75;;;4.07;;
14933;SDS011;7560;51.364;12.384;2024-01-15T09:41:16;9.05;;;4.03;;
14933;SDS011;7560;51.364;12.384;2024-01-15T09:46:18;8.95;;;4.65;;
14933;SDS011;7560;51.364;12.384;2024-01-15T09:51:20;7.97;;;4.03;;
14933;SDS011;7560;51.364;12.384;2024-01-15T09:56:22;8.45;;;4.50;;
14933;SDS011;7560;51.364;12.384;2024-01-15T10:01:24;8.45;;;4.57;;
14933;SDS011;7560;51.364;12.384;2024-01-15T10:06:27;12.05;;;4.93;;
14933;SDS011;7560;51.364;12.384;2024-01-15T10:11:29;9.15;;;4.63;;
14933;SDS011;7560;51.364;12.384;2024-01-15T10:16:32;8.73;;;4.68;;
14933;SDS011;7560;51.364;12.384;2024-01-15T10:21:34;10.60;;;4.72;;
14933;SDS011;7560;51.364;12.384;2024-01-15T10:26:36;8.93;;;3.83;;
14933;SDS011;7560;51.364;12.384;2024-01-15T10:31:38;9.48;;;4.70;;
14933;SDS011;7560;51.364;12.384;2024-01-15T10:36:40;8.98;;;4.95;;
14933;SDS011;7560;51.364;12.384;2024-01-15T10:41:42;8.88;;;4.82;;
14933;SDS011;7560;51.364;12.384;2024-01-15T10:46:45;7.72;;;4.55;;
14933;SDS011;7560;51.364;12.384;2024-01-15T10:51:48;10.38;;;5.20;;
14933;SDS011;7560;51.364;12.384;2024-01-15T10:56:50;8.73;;;4.88;;
14933;SDS011;7560;51.364;12.384;2024-01-15T11:01:52;9.90;;;5.03;;
14933;SDS011;7560;51.364;12.384;2024-01-15T11:06:56;10.10;;;5.50;;
14933;SDS011;7560;51.364;12.384;2024-01-15T11:12:11;11.52;;;4.97;;
14933;SDS011;7560;51.364;12.384;2024-01-15T11:17:14;9.98;;;5.88;;
14933;SDS011;7560;51.364;12.384;2024-01-15T11:32:46;13.10;;;6.25;;
14933;SDS011;7560;51.364;12.384;2024-01-15T11:42:53;12.18;;;6.15;;
14933;SDS011;7560;51.364;12.384;2024-01-15T11:48:05;9.55;;;4.95;;
14933;SDS011;7560;51.364;12.384;2024-01-15T11:58:30;10.95;;;5.80;;
14933;SDS011;7560;51.364;12.384;2024-01-15T12:03:32;12.35;;;6.32;;
14933;SDS011;7560;51.364;12.384;2024-01-15T12:08:34;11.50;;;4.80;;
14933;SDS011;7560;51.364;12.384;2024-01-15T12:13:36;8.82;;;5.47;;
14933;SDS011;7560;51.364;12.384;2024-01-15T12:18:38;8.82;;;5.15;;
14933;SDS011;7560;51.364;12.384;2024-01-15T12:23:40;11.85;;;6.03;;
14933;SDS011;7560;51.364;12.384;2024-01-15T12:28:42;10.60;;;5.65;;
14933;SDS011;7560;51.364;12.384;2024-01-15T12:33:44;8.98;;;5.07;;
14933;SDS011;7560;51.364;12.384;2024-01-15T12:38:46;9.77;;;5.60;;
14933;SDS011;7560;51.364;12.384;2024-01-15T12:43:48;10.82;;;4.85;;
14933;SDS011;7560;51.364;12.384;2024-01-15T12:48:50;11.40;;;4.68;;
14933;SDS011;7560;51.364;12.384;2024-01-15T12:53:52;8.85;;;4.40;;
14933;SDS011;7560;51.364;12.384;2024-01-15T12:58:54;8.52;;;5.22;;
14933;SDS011;7560;51.364;12.384;2024-01-15T13:03:56;10.88;;;5.13;;
14933;SDS011;7560;51.364;12.384;2024-01-15T13:08:58;7.40;;;4.00;;
14933;SDS011;7560;51.364;12.384;2024-01-15T13:14:00;7.90;;;4.70;;
14933;SDS011;7560;51.364;12.384;2024-01-15T13:19:02;9.27;;;4.95;;
14933;SDS011;7560;51.364;12.384;2024-01-15T13:24:05;8.98;;;5.10;;
14933;SDS011;7560;51.364;12.384;2024-01-15T13:29:07;5.82;;;3.85;;
14933;SDS011;7560;51.364;12.384;2024-01-15T13:34:09;9.43;;;4.25;;
14933;SDS011;7560;51.364;12.384;2024-01-15T13:39:11;6.40;;;3.25;;
14933;SDS011;7560;51.364;12.384;2024-01-15T13:44:13;8.43;;;4.15;;
14933;SDS011;7560;51.364;12.384;2024-01-15T13:49:14;8.00;;;4.13;;
14933;SDS011;7560;51.364;12.384;2024-01-15T13:54:16;8.57;;;3.80;;
14933;SDS011;7560;51.364;12.384;2024-01-15T13:59:18;5.72;;;3.78;;
14933;SDS011;7560;51.364;12.384;2024-01-15T14:04:20;6.80;;;3.97;;
14933;SDS011;7560;51.364;12.384;2024-01-15T14:09:22;7.78;;;3.88;;
14933;SDS011;7560;51.364;12.384;2024-01-15T14:14:23;7.18;;;3.47;;
14933;SDS011;7560;51.364;12.384;2024-01-15T14:19:25;6.93;;;3.95;;
14933;SDS011;7560;51.364;12.384;2024-01-15T14:24:28;5.85;;;3.13;;
14933;SDS011;7560;51.364;12.384;2024-01-15T14:29:30;7.20;;;3.53;;
14933;SDS011;7560;51.364;12.384;2024-01-15T14:34:32;7.25;;;4.00;;
14933;SDS011;7560;51.364;12.384;2024-01-15T14:39:34;11.30;;;4.03;;
14933;SDS011;7560;51.364;12.384;2024-01-15T14:44:36;7.47;;;4.30;;
14933;SDS011;7560;51.364;12.384;2024-01-15T14:49:39;9.40;;;4.38;;
14933;SDS011;7560;51.364;12.384;2024-01-15T14:54:41;6.80;;;3.88;;
14933;SDS011;7560;51.364;12.384;2024-01-15T14:59:43;7.63;;;4.60;;
14933;SDS011;7560;51.364;12.384;2024-01-15T15:04:45;7.82;;;4.38;;
14933;SDS011;7560;51.364;12.384;2024-01-15T15:09:50;8.05;;;4.20;;
14933;SDS011;7560;51.364;12.384;2024-01-15T15:14:52;5.72;;;3.42;;
14933;SDS011;7560;51.364;12.384;2024-01-15T15:20:08;5.93;;;3.58;;
14933;SDS011;7560;51.364;12.384;2024-01-15T15:25:10;7.95;;;3.80;;
14933;SDS011;7560;51.364;12.384;2024-01-15T15:30:13;6.57;;;3.60;;
14933;SDS011;7560;51.364;12.384;2024-01-15T15:35:15;8.02;;;4.25;;
14933;SDS011;7560;51.364;12.384;2024-01-15T15:40:18;9.40;;;4.68;;
14933;SDS011;7560;51.364;12.384;2024-01-15T15:45:20;7.07;;;4.30;;
14933;SDS011;7560;51.364;12.384;2024-01-15T15:50:22;8.57;;;4.30;;
14933;SDS011;7560;51.364;12.384;2024-01-15T15:55:24;8.35;;;4.18;;
14933;SDS011;7560;51.364;12.384;2024-01-15T16:00:26;7.35;;;4.22;;
14933;SDS011;7560;51.364;12.384;2024-01-15T16:05:30;9.57;;;5.55;;
14933;SDS011;7560;51.364;12.384;2024-01-15T16:10:45;9.40;;;5.32;;
14933;SDS011;7560;51.364;12.384;2024-01-15T16:15:50;9.40;;;4.70;;
14933;SDS011;7560;51.364;12.384;2024-01-15T16:21:12;8.85;;;5.45;;
14933;SDS011;7560;51.364;12.384;2024-01-15T16:26:33;10.18;;;5.25;;
14933;SDS011;7560;51.364;12.384;2024-01-15T16:31:37;9.48;;;5.07;;
14933;SDS011;7560;51.364;12.384;2024-01-15T16:36:48;9.95;;;5.35;;
14933;SDS011;7560;51.364;12.384;2024-01-15T16:41:50;7.30;;;4.32;;
14933;SDS011;7560;51.364;12.384;2024-01-15T16:46:52;7.00;;;4.38;;
14933;SDS011;7560;51.364;12.384;2024-01-15T16:51:57;6.38;;;3.97;;
14933;SDS011;7560;51.364;12.384;2024-01-15T16:56:58;7.95;;;4.63;;
14933;SDS011;7560;51.364;12.384;2024-01-15T17:02:00;6.53;;;3.88;;
14933;SDS011;7560;51.364;12.384;2024-01-15T17:07:02;6.10;;;4.28;;
14933;SDS011;7560;51.364;12.384;2024-01-15T17:12:04;6.25;;;4.03;;
14933;SDS011;7560;51.364;12.384;2024-01-15T17:17:06;5.57;;;3.53;;
14933;SDS011;7560;51.364;12.384;2024-01-15T17:22:08;5.18;;;3.38;;
14933;SDS011;7560;51.364;12.384;2024-01-15T17:27:11;6.05;;;3.53;;
14933;SDS011;7560;51.364;12.384;2024-01-15T17:32:13;7.00;;;3.50;;
14933;SDS011;7560;51.364;12.384;2024-01-15T17:37:15;6.75;;;3.60;;
14933;SDS011;7560;51.364;12.384;2024-01-15T17:42:17;4.85;;;3.30;;
14933;SDS011;7560;51.364;12.384;2024-01-15T17:47:21;6.35;;;3.78;;
14933;SDS011;7560;51.364;12.384;2024-01-15T17:52:23;5.25;;;3.83;;
14933;SDS011;7560;51.364;12.384;2024-01-15T17:57:25;7.38;;;3.70;;
14933;SDS011;7560;51.364;12.384;2024-01-15T18:02:27;7.13;;;4.05;;
14933;SDS011;7560;51.364;12.384;2024-01-15T18:07:29;5.93;;;3.92;;
14933;SDS011;7560;51.364;12.384;2024-01-15T18:12:31;5.55;;;3.85;;
14933;SDS011;7560;51.364;12.384;2024-01-15T18:17:33;6.07;;;4.03;;
14933;SDS011;7560;51.364;12.384;2024-01-15T18:22:36;6.03;;;3.92;;
14933;SDS011;7560;51.364;12.384;2024-01-15T18:27:38;6.45;;;3.88;;
14933;SDS011;7560;51.364;12.384;2024-01-15T18:32:40;6.57;;;4.13;;
14933;SDS011;7560;51.364;12.384;2024-01-15T18:37:43;7.28;;;3.70;;
14933;SDS011;7560;51.364;12.384;2024-01-15T18:42:47;6.40;;;3.70;;
14933;SDS011;7560;51.364;12.384;2024-01-15T18:47:49;7.88;;;4.13;;
14933;SDS011;7560;51.364;12.384;2024-01-15T18:52:51;5.43;;;3.22;;
14933;SDS011;7560;51.364;12.384;2024-01-15T18:57:54;6.07;;;3.30;;
14933;SDS011;7560;51.364;12.384;2024-01-15T19:03:00;6.18;;;3.58;;
14933;SDS011;7560;51.364;12.384;2024-01-15T19:08:02;5.85;;;3.50;;
14933;SDS011;7560;51.364;12.384;2024-01-15T19:13:05;8.90;;;4.00;;
14933;SDS011;7560;51.364;12.384;2024-01-15T19:18:07;5.10;;;3.15;;
14933;SDS011;7560;51.364;12.384;2024-01-15T19:23:10;7.43;;;3.58;;
14933;SDS011;7560;51.364;12.384;2024-01-15T19:28:11;5.03;;;3.15;;
14933;SDS011;7560;51.364;12.384;2024-01-15T19:33:14;8.25;;;4.15;;
14933;SDS011;7560;51.364;12.384;2024-01-15T19:38:17;6.65;;;4.07;;
14933;SDS011;7560;51.364;12.384;2024-01-15T19:43:19;7.55;;;4.40;;
14933;SDS011;7560;51.364;12.384;2024-01-15T19:48:30;5.60;;;3.15;;
14933;SDS011;7560;51.364;12.384;2024-01-15T19:53:32;5.88;;;3.40;;
14933;SDS011;7560;51.364;12.384;2024-01-15T19:58:34;5.75;;;3.80;;
14933;SDS011;7560;51.364;12.384;2024-01-15T20:03:38;4.82;;;3.35;;
14933;SDS011;7560;51.364;12.384;2024-01-15T20:08:45;6.45;;;4.10;;
14933;SDS011;7560;51.364;12.384;2024-01-15T20:13:47;4.80;;;3.50;;
14933;SDS011;7560;51.364;12.384;2024-01-15T20:18:49;5.57;;;3.70;;
14933;SDS011;7560;51.364;12.384;2024-01-15T20:23:54;6.20;;;3.33;;
14933;SDS011;7560;51.364;12.384;2024-01-15T20:29:04;6.70;;;3.95;;
14933;SDS011;7560;51.364;12.384;2024-01-15T20:34:06;4.90;;;3.40;;
14933;SDS011;7560;51.364;12.384;2024-01-15T20:39:09;5.07;;;3.38;;
14933;SDS011;7560;51.364;12.384;2024-01-15T20:44:11;4.85;;;3.33;;
14933;SDS011;7560;51.364;12.384;2024-01-15T20:49:13;4.43;;;2.78;;
14933;SDS011;7560;51.364;12.384;2024-01-15T20:54:15;4.97;;;2.85;;
14933;SDS011;7560;51.364;12.384;2024-01-15T20:59:17;5.53;;;3.20;;
14933;SDS011;7560;51.364;12.384;2024-01-15T21:04:19;4.07;;;3.15;;
14933;SDS011;7560;51.364;12.384;2024-01-15T21:09:23;3.60;;;2.58;;
14933;SDS011;7560;51.364;12.384;2024-01-15T21:14:25;4.00;;;2.53;;
14933;SDS011;7560;51.364;12.384;2024-01-15T21:19:26;5.90;;;2.38;;
14933;SDS011;7560;51.364;12.384;2024-01-15T21:24:28;4.00;;;1.52;;
14933;SDS011;7560;51.364;12.384;2024-01-15T21:29:30;4.45;;;1.73;;
14933;SDS011;7560;51.364;12.384;2024-01-15T21:34:32;3.00;;;1.45;;
14933;SDS011;7560;51.364;12.384;2024-01-15T21:39:34;5.10;;;1.50;;
14933;SDS011;7560;51.364;12.384;2024-01-15T21:44:36;3.90;;;1.40;;
14933;SDS011;7560;51.364;12.384;2024-01-15T21:49:38;4.93;;;1.58;;
14933;SDS011;7560;51.364;12.384;2024-01-15T21:54:40;1.88;;;1.33;;
14933;SDS011;7560;51.364;12.384;2024-01-15T21:59:41;1.65;;;1.05;;
14933;SDS011;7560;51.364;12.384;2024-01-15T22:04:44;5.35;;;1.30;;
14933;SDS011;7560;51.364;12.384;2024-01-15T22:09:45;3.50;;;1.40;;
14933;SDS011;7560;51.364;12.384;2024-01-15T22:14:47;6.93;;;1.50;;
14933;SDS011;7560;51.364;12.384;2024-01-15T22:19:49;3.70;;;1.50;;
14933;SDS011;7560;51.364;12.384;2024-01-15T22:24:51;7.45;;;1.92;;
14933;SDS011;7560;51.364;12.384;2024-01-15T22:29:53;3.53;;;1.45;;
14933;SDS011;7560;51.364;12.384;2024-01-15T22:34:55;2.88;;;1.40;;
14933;SDS011;7560;51.364;12.384;2024-01-15T22:39:56;4.53;;;1.40;;
14933;SDS011;7560;51.364;12.384;2024-01-15T22:44:59;4.60;;;1.60;;
14933;SDS011;7560;51.364;12.384;2024-01-15T22:50:02;6.93;;;1.30;;
14933;SDS011;7560;51.364;12.384;2024-01-15T22:55:04;3.92;;;1.50;;
14933;SDS011;7560;51.364;12.384;2024-01-15T23:00:06;3.28;;;1.50;;
14933;SDS011;7560;51.364;12.384;2024-01-15T23:05:19;2.85;;;1.40;;
14933;SDS011;7560;51.364;12.384;2024-01-15T23:10:22;3.65;;;1.50;;
14933;SDS011;7560;51.364;12.384;2024-01-15T23:15:24;3.47;;;1.70;;
14933;SDS011;7560;51.364;12.384;2024-01-15T23:20:25;4.95;;;1.80;;
14933;SDS011;7560;51.364;12.384;2024-01-15T23:25:27;5.07;;;2.00;;
14933;SDS011;7560;51.364;12.384;2024-01-15T23:30:29;5.00;;;2.30;;
14933;SDS011;7560;51.364;12.384;2024-01-15T23:35:33;4.93;;;2.15;;
14933;SDS011;7560;51.364;12.384;2024-01-15T23:40:35;4.90;;;2.13;;
14933;SDS011;7560;51.364;12.384;2024-01-15T23:45:38;6.40;;;2.28;;
14933;SDS011;7560;51.364;12.384;2024-01-15T23:50:41;3.38;;;1.70;;
14933;SDS011;7560;51.364;12.384;2024-01-15T23:55:43;4.93;;;2.42;;
